createdAt,value
2018-07-10T00:00:30.421Z,19.35
2018-07-10T00:01:14.989Z,19.28
2018-07-10T00:02:35.988Z,19.35
2018-07-10T00:03:15.490Z,19.32
2018-07-10T00:04:17.488Z,19.30
2018-07-10T00:05:15.489Z,19.27
2018-07-10T00:06:15.488Z,19.28
2018-07-10T00:07:21.988Z,19.32
2018-07-10T00:08:36.236Z,19.21
2018-07-10T00:09:15.988Z,19.23
2018-07-10T00:10:15.463Z,19.24
2018-07-10T00:11:22.495Z,19.25
2018-07-10T00:12:37.489Z,19.30
2018-07-10T00:13:16.489Z,19.30
2018-07-10T00:14:16.490Z,19.38
2018-07-10T00:15:16.988Z,19.30
2018-07-10T00:16:16.988Z,19.32
2018-07-10T00:17:16.339Z,19.28
2018-07-10T00:18:19.420Z,19.25
2018-07-10T00:19:17.488Z,19.15
2018-07-10T00:20:17.488Z,19.25
2018-07-10T00:21:17.488Z,19.17
2018-07-10T00:22:17.489Z,19.27
2018-07-10T00:23:32.007Z,19.28
2018-07-10T00:24:17.996Z,19.27
2018-07-10T00:25:38.995Z,19.30
2018-07-10T00:26:19.921Z,19.27
2018-07-10T00:30:21.169Z,19.31
2018-07-10T00:31:20.525Z,19.32
2018-07-10T00:32:22.170Z,19.31
2018-07-10T00:34:54.919Z,19.31
2018-07-10T00:35:54.868Z,19.35
2018-07-10T00:36:53.922Z,19.30
2018-07-10T00:37:53.421Z,19.21
2018-07-10T00:40:24.799Z,19.34
2018-07-10T00:41:24.805Z,19.38
2018-07-10T00:42:24.806Z,19.25
2018-07-10T00:43:25.305Z,19.28
2018-07-10T00:44:25.309Z,19.30
2018-07-10T00:45:40.776Z,19.15
2018-07-10T00:47:56.914Z,19.28
2018-07-10T00:48:57.854Z,19.27
2018-07-10T00:49:56.921Z,19.17
2018-07-10T00:50:56.921Z,19.24
2018-07-10T00:51:59.422Z,19.27
2018-07-10T00:52:57.420Z,19.23
2018-07-10T00:53:57.421Z,19.20
2018-07-10T00:54:57.434Z,19.21
2018-07-10T00:57:29.176Z,19.23
2018-07-10T00:58:31.184Z,19.20
2018-07-10T00:59:29.184Z,19.20
2018-07-10T01:00:28.785Z,19.13
2018-07-10T01:01:29.691Z,19.21
2018-07-10T01:02:29.684Z,19.23
2018-07-10T01:03:29.684Z,19.24
2018-07-10T01:04:30.188Z,19.16
2018-07-10T01:05:30.187Z,19.15
2018-07-10T01:06:30.182Z,19.10
2018-07-10T01:07:32.151Z,19.17
2018-07-10T01:08:36.682Z,19.09
2018-07-10T01:09:29.938Z,19.10
2018-07-10T01:10:30.684Z,19.07
2018-07-10T01:11:30.163Z,19.09
2018-07-10T01:12:30.260Z,19.12
2018-07-10T01:13:31.184Z,19.09
2018-07-10T01:14:52.184Z,18.94
2018-07-10T01:15:52.184Z,18.94
2018-07-10T01:16:52.184Z,18.93
2018-07-10T01:17:32.683Z,18.87
2018-07-10T01:18:31.685Z,18.90
2018-07-10T01:19:31.684Z,18.90
2018-07-10T01:20:36.116Z,18.93
2018-07-10T01:21:34.149Z,18.83
2018-07-10T01:24:25.963Z,18.89
2018-07-10T01:25:25.462Z,18.78
2018-07-10T01:26:25.030Z,18.84
2018-07-10T01:27:06.032Z,18.84
2018-07-10T01:28:07.463Z,18.79
2018-07-10T01:29:04.091Z,18.79
2018-07-10T01:30:04.028Z,18.75
2018-07-10T01:31:04.037Z,18.72
2018-07-10T01:32:05.962Z,18.79
2018-07-10T01:33:04.531Z,18.76
2018-07-10T01:34:04.533Z,18.69
2018-07-10T01:35:04.541Z,18.71
2018-07-10T01:37:36.336Z,18.75
2018-07-10T01:38:36.344Z,18.75
2018-07-10T01:39:36.347Z,18.65
2018-07-10T01:40:36.841Z,18.74
2018-07-10T01:41:36.840Z,18.68
2018-07-10T01:42:57.840Z,18.75
2018-07-10T01:43:36.320Z,18.68
2018-07-10T01:44:58.340Z,18.69
2018-07-10T01:45:37.344Z,18.68
2018-07-10T01:46:38.344Z,18.71
2018-07-10T01:47:38.339Z,18.57
2018-07-10T01:48:36.935Z,18.51
2018-07-10T01:49:37.841Z,18.51
2018-07-10T01:50:37.840Z,18.39
2018-07-10T01:51:37.334Z,18.42
2018-07-10T01:53:01.342Z,18.38
2018-07-10T01:53:37.578Z,18.57
2018-07-10T01:54:59.342Z,18.53
2018-07-10T01:55:38.343Z,18.54
2018-07-10T01:56:40.841Z,18.59
2018-07-10T01:59:11.665Z,18.56
2018-07-10T02:00:37.232Z,18.49
2018-07-10T02:02:41.857Z,18.32
2018-07-10T02:05:13.353Z,18.23
2018-07-10T02:06:13.365Z,18.16
2018-07-10T02:07:13.362Z,18.14
2018-07-10T02:08:16.292Z,18.10
2018-07-10T02:09:15.860Z,18.13
2018-07-10T02:10:13.860Z,17.98
2018-07-10T02:11:13.952Z,18.05
2018-07-10T02:12:35.357Z,17.98
2018-07-10T02:13:14.364Z,18.01
2018-07-10T02:14:15.792Z,18.01
2018-07-10T02:15:14.364Z,18.04
2018-07-10T02:16:14.867Z,18.04
2018-07-10T02:18:46.256Z,18.02
2018-07-10T02:21:17.750Z,17.86
2018-07-10T02:22:40.235Z,17.77
2018-07-10T02:23:17.755Z,17.79
2018-07-10T02:25:49.534Z,17.83
2018-07-10T02:27:10.541Z,17.80
2018-07-10T02:27:49.533Z,17.83
2018-07-10T02:28:49.132Z,17.80
2018-07-10T02:29:52.033Z,17.73
2018-07-10T02:30:50.033Z,17.77
2018-07-10T02:32:11.034Z,17.65
2018-07-10T02:33:11.530Z,17.54
2018-07-10T02:33:50.527Z,17.46
2018-07-10T02:34:50.536Z,17.49
2018-07-10T02:35:50.560Z,17.46
2018-07-10T02:38:22.280Z,17.33
2018-07-10T02:39:21.634Z,17.39
2018-07-10T02:40:22.284Z,17.42
2018-07-10T02:41:26.216Z,17.39
2018-07-10T02:42:36.784Z,17.38
2018-07-10T02:43:22.139Z,17.40
2018-07-10T02:44:22.826Z,17.46
2018-07-10T02:45:23.317Z,17.32
2018-07-10T02:46:43.419Z,17.33
2018-07-10T02:47:22.513Z,17.18
2018-07-10T02:48:23.316Z,17.27
2018-07-10T02:49:22.666Z,17.14
2018-07-10T02:50:44.284Z,17.12
2018-07-10T02:51:23.785Z,17.22
2018-07-10T02:53:55.186Z,17.10
2018-07-10T02:54:55.191Z,17.05
2018-07-10T02:55:55.191Z,17.07
2018-07-10T02:56:55.691Z,17.05
2018-07-10T02:57:55.691Z,17.02
2018-07-10T02:58:56.690Z,17.09
2018-07-10T02:59:57.692Z,17.06
2018-07-10T03:02:49.887Z,17.06
2018-07-10T03:03:48.457Z,16.90
2018-07-10T03:04:27.451Z,16.96
2018-07-10T03:06:59.208Z,16.84
2018-07-10T03:08:01.216Z,16.80
2018-07-10T03:08:58.737Z,16.81
2018-07-10T03:10:28.149Z,16.80
2018-07-10T03:10:59.716Z,16.66
2018-07-10T03:12:05.716Z,16.78
2018-07-10T03:12:59.716Z,16.73
2018-07-10T03:14:00.215Z,16.65
2018-07-10T03:15:23.148Z,16.80
2018-07-10T03:16:22.668Z,16.73
2018-07-10T03:16:59.645Z,16.66
2018-07-10T03:18:02.731Z,16.52
2018-07-10T03:18:59.833Z,16.60
2018-07-10T03:20:00.722Z,16.59
2018-07-10T03:21:00.717Z,16.57
2018-07-10T03:22:00.721Z,16.70
2018-07-10T03:23:08.215Z,16.67
2018-07-10T03:25:32.584Z,16.75
2018-07-10T03:26:37.018Z,16.81
2018-07-10T03:27:32.586Z,16.70
2018-07-10T03:28:33.099Z,16.73
2018-07-10T03:29:54.085Z,16.82
2018-07-10T03:30:34.555Z,16.70
2018-07-10T03:31:33.086Z,16.69
2018-07-10T03:34:07.794Z,16.60
2018-07-10T03:35:04.860Z,16.48
2018-07-10T03:36:05.362Z,16.54
2018-07-10T03:37:05.360Z,16.54
2018-07-10T03:38:05.360Z,16.57
2018-07-10T03:39:05.367Z,16.65
2018-07-10T03:40:05.860Z,16.66
2018-07-10T03:41:05.861Z,16.55
2018-07-10T03:42:05.860Z,16.52
2018-07-10T03:43:05.867Z,16.47
2018-07-10T03:44:07.793Z,16.45
2018-07-10T03:45:12.794Z,16.51
2018-07-10T03:46:06.389Z,16.57
2018-07-10T03:47:05.828Z,16.62
2018-07-10T03:49:38.066Z,16.52
2018-07-10T03:50:37.413Z,16.40
2018-07-10T03:51:38.078Z,16.40
2018-07-10T03:52:38.570Z,16.45
2018-07-10T03:53:38.593Z,16.51
2018-07-10T03:54:38.571Z,16.51
2018-07-10T03:55:59.573Z,16.51
2018-07-10T03:57:06.070Z,16.50
2018-07-10T03:57:39.077Z,16.52
2018-07-10T03:58:39.070Z,16.51
2018-07-10T03:59:39.071Z,16.54
2018-07-10T04:04:03.260Z,16.52
2018-07-10T04:04:42.267Z,16.50
2018-07-10T04:05:48.270Z,16.57
2018-07-10T04:07:05.765Z,16.60
2018-07-10T04:08:02.975Z,16.62
2018-07-10T04:08:42.779Z,16.62
2018-07-10T04:09:43.772Z,16.55
2018-07-10T04:10:42.791Z,16.63
2018-07-10T04:12:05.200Z,16.59
2018-07-10T04:13:04.271Z,16.59
2018-07-10T04:14:04.267Z,16.67
2018-07-10T04:14:43.267Z,16.73
2018-07-10T04:16:05.699Z,16.67
2018-07-10T04:16:44.765Z,16.73
2018-07-10T04:17:45.214Z,16.80
2018-07-10T04:18:43.767Z,16.82
2018-07-10T04:19:43.767Z,16.80
2018-07-10T04:22:38.450Z,16.85
2018-07-10T04:23:18.518Z,16.95
2018-07-10T04:26:01.401Z,16.85
2018-07-10T04:26:47.399Z,16.80
2018-07-10T04:32:21.895Z,16.78
2018-07-10T04:33:21.902Z,16.85
2018-07-10T04:34:21.899Z,16.75
2018-07-10T04:35:21.501Z,16.84
2018-07-10T04:39:25.164Z,16.84
2018-07-10T04:40:25.171Z,16.75
2018-07-10T04:41:25.174Z,16.72
2018-07-10T04:42:25.741Z,16.73
2018-07-10T04:43:25.671Z,16.66
2018-07-10T04:44:25.677Z,16.78
2018-07-10T04:45:25.736Z,16.63
2018-07-10T04:46:28.126Z,16.52
2018-07-10T04:47:26.171Z,16.50
2018-07-10T04:48:25.394Z,16.51
2018-07-10T04:49:26.233Z,16.57
2018-07-10T04:50:32.103Z,16.67
2018-07-10T04:52:57.913Z,16.80
2018-07-10T04:53:57.924Z,16.82
2018-07-10T04:54:57.923Z,16.75
2018-07-10T04:55:58.423Z,16.99
2018-07-10T04:56:58.424Z,17.00
2018-07-10T04:57:58.424Z,17.06
2018-07-10T04:58:58.425Z,17.02
2018-07-10T04:59:58.024Z,17.05
2018-07-10T05:02:44.315Z,17.15
2018-07-10T05:03:36.316Z,17.32
2018-07-10T05:04:30.315Z,17.57
2018-07-10T05:05:30.829Z,17.32
2018-07-10T05:06:32.815Z,17.15
2018-07-10T05:07:32.747Z,16.70
2018-07-10T05:08:51.815Z,16.55
2018-07-10T05:09:48.250Z,16.54
2018-07-10T05:10:31.318Z,16.47
2018-07-10T05:11:32.768Z,16.54
2018-07-10T05:12:32.796Z,16.50
2018-07-10T05:13:54.747Z,16.75
2018-07-10T05:14:52.816Z,16.81
2018-07-10T05:15:52.852Z,16.66
2018-07-10T05:16:52.864Z,16.73
2018-07-10T05:17:32.805Z,17.65
2018-07-10T05:18:31.499Z,17.79
2018-07-10T05:19:53.314Z,18.02
2018-07-10T05:20:32.316Z,17.68
2018-07-10T05:21:38.316Z,17.46
2018-07-10T05:25:35.524Z,17.25
2018-07-10T05:26:35.533Z,17.09
2018-07-10T05:27:35.529Z,17.05
2018-07-10T05:28:42.093Z,17.00
2018-07-10T05:29:36.033Z,16.96
2018-07-10T05:30:57.031Z,16.80
2018-07-10T05:31:36.135Z,16.67
2018-07-10T05:35:39.233Z,16.80
2018-07-10T05:36:38.582Z,16.65
2018-07-10T05:37:38.684Z,16.48
2018-07-10T05:38:53.740Z,17.05
2018-07-10T05:41:11.004Z,16.90
2018-07-10T05:42:12.437Z,16.84
2018-07-10T05:43:10.481Z,16.69
2018-07-10T05:44:32.505Z,16.67
2018-07-10T05:45:11.504Z,16.81
2018-07-10T05:46:11.509Z,17.49
2018-07-10T05:47:11.503Z,17.24
2018-07-10T05:48:12.008Z,17.06
2018-07-10T05:49:12.006Z,16.95
2018-07-10T05:50:12.005Z,16.81
2018-07-10T05:51:12.005Z,17.91
2018-07-10T05:52:14.505Z,17.55
2018-07-10T05:54:46.810Z,16.82
2018-07-10T05:56:04.877Z,16.50
2018-07-10T05:56:43.355Z,16.37
2018-07-10T05:58:05.378Z,16.22
2018-07-10T06:00:15.751Z,16.11
2018-07-10T06:01:15.779Z,16.11
2018-07-10T06:02:15.770Z,16.01
2018-07-10T06:03:36.374Z,16.25
2018-07-10T06:04:16.258Z,16.32
2018-07-10T06:05:16.258Z,16.32
2018-07-10T06:06:16.258Z,16.52
2018-07-10T06:07:22.770Z,17.07
2018-07-10T06:08:36.993Z,17.02
2018-07-10T06:09:16.759Z,17.07
2018-07-10T06:10:37.761Z,17.43
2018-07-10T06:11:23.258Z,17.40
2018-07-10T06:12:39.253Z,17.09
2018-07-10T06:13:17.258Z,16.67
2018-07-10T06:14:18.733Z,16.48
2018-07-10T06:15:17.816Z,16.50
2018-07-10T06:16:17.775Z,16.37
2018-07-10T06:17:17.774Z,16.27
2018-07-10T06:18:17.767Z,16.33
2018-07-10T06:19:20.259Z,16.16
2018-07-10T06:20:17.495Z,16.23
2018-07-10T06:21:38.575Z,16.41
2018-07-10T06:22:18.298Z,16.27
2018-07-10T06:23:18.254Z,16.07
2018-07-10T06:24:18.760Z,15.99
2018-07-10T06:26:51.114Z,15.92
2018-07-10T06:27:51.623Z,16.07
2018-07-10T06:28:52.114Z,16.29
2018-07-10T06:29:51.663Z,16.14
2018-07-10T06:31:10.879Z,16.13
2018-07-10T06:31:56.683Z,16.17
2018-07-10T06:32:53.710Z,16.23
2018-07-10T06:33:50.682Z,16.48
2018-07-10T06:35:05.207Z,16.66
2018-07-10T06:35:52.667Z,17.07
2018-07-10T06:36:53.184Z,17.12
2018-07-10T06:37:51.196Z,17.03
2018-07-10T06:40:22.941Z,16.81
2018-07-10T06:41:22.946Z,16.88
2018-07-10T06:42:22.936Z,16.84
2018-07-10T06:43:24.369Z,16.65
2018-07-10T06:44:22.667Z,16.75
2018-07-10T06:45:23.461Z,16.69
2018-07-10T06:46:23.436Z,17.06
2018-07-10T06:47:23.936Z,17.05
2018-07-10T06:48:37.996Z,16.91
2018-07-10T06:49:23.935Z,16.82
2018-07-10T06:50:23.442Z,17.33
2018-07-10T06:51:24.441Z,17.30
2018-07-10T06:52:24.485Z,17.22
2018-07-10T06:53:24.888Z,17.91
2018-07-10T06:54:23.923Z,17.91
2018-07-10T06:55:24.032Z,17.58
2018-07-10T06:56:26.405Z,17.12
2018-07-10T06:57:24.936Z,17.14
2018-07-10T06:59:56.805Z,16.78
2018-07-10T07:01:02.589Z,16.95
2018-07-10T07:01:56.993Z,17.05
2018-07-10T07:02:57.093Z,17.55
2018-07-10T07:03:57.091Z,17.73
2018-07-10T07:04:57.147Z,17.95
2018-07-10T07:05:57.088Z,17.96
2018-07-10T07:06:57.089Z,18.09
2018-07-10T07:08:11.589Z,18.35
2018-07-10T07:10:49.994Z,18.86
2018-07-10T07:11:29.001Z,18.62
2018-07-10T07:12:28.593Z,19.01
2018-07-10T07:13:31.492Z,19.16
2018-07-10T07:16:25.472Z,18.93
2018-07-10T07:17:21.439Z,18.66
2018-07-10T07:18:24.034Z,18.39
2018-07-10T07:19:01.536Z,17.98
2018-07-10T07:20:01.528Z,17.80
2018-07-10T07:21:22.536Z,18.10
2018-07-10T07:22:01.551Z,18.09
2018-07-10T07:23:23.041Z,18.09
2018-07-10T07:24:24.503Z,18.51
2018-07-10T07:25:01.374Z,18.57
2018-07-10T07:26:01.469Z,18.86
2018-07-10T07:27:04.536Z,19.28
2018-07-10T07:28:23.556Z,19.72
2018-07-10T07:29:23.534Z,20.97
2018-07-10T07:30:01.894Z,20.17
2018-07-10T07:31:23.537Z,20.57
2018-07-10T07:32:24.034Z,20.83
2018-07-10T07:33:24.032Z,20.10
2018-07-10T07:34:03.035Z,20.12
2018-07-10T07:35:23.498Z,20.23
2018-07-10T07:37:34.782Z,20.38
2018-07-10T07:38:34.784Z,20.54
2018-07-10T07:39:34.784Z,21.48
2018-07-10T07:42:05.808Z,19.49
2018-07-10T07:44:38.053Z,18.32
2018-07-10T07:45:38.056Z,18.19
2018-07-10T07:46:40.065Z,18.41
2018-07-10T07:47:38.561Z,18.10
2018-07-10T07:57:16.188Z,19.97
2018-07-10T07:59:16.052Z,19.90
2018-07-10T08:00:16.064Z,19.58
2018-07-10T08:01:16.051Z,19.79
2018-07-10T08:02:16.051Z,19.92
2018-07-10T08:03:16.551Z,19.92
2018-07-10T08:04:28.489Z,20.20
2018-07-10T08:05:16.380Z,19.98
2018-07-10T08:06:16.736Z,20.25
2018-07-10T08:07:17.055Z,21.13
2018-07-10T08:08:19.986Z,21.21
2018-07-10T08:09:17.086Z,21.15
2018-07-10T08:10:17.987Z,20.73
2018-07-10T08:13:17.361Z,21.21
2018-07-10T08:14:17.551Z,20.16
2018-07-10T08:19:52.277Z,21.52
2018-07-10T08:22:47.991Z,22.61
2018-07-10T08:23:24.352Z,23.16
2018-07-10T08:28:49.079Z,20.01
2018-07-10T08:29:27.500Z,20.40
2018-07-10T08:30:50.363Z,20.34
2018-07-10T08:31:30.491Z,20.05
2018-07-10T08:32:27.786Z,19.83
2018-07-10T08:33:29.477Z,19.70
2018-07-10T08:37:31.584Z,20.79
2018-07-10T08:38:34.532Z,21.56
2018-07-10T08:39:33.029Z,22.21
2018-07-10T08:42:02.567Z,21.83
2018-07-10T08:43:24.304Z,20.82
2018-07-10T08:44:24.306Z,20.27
2018-07-10T08:46:37.566Z,20.27
2018-07-10T08:47:57.572Z,20.25
2018-07-10T08:48:35.574Z,20.04
2018-07-10T08:49:35.574Z,20.68
2018-07-10T08:50:38.108Z,21.90
2018-07-10T08:51:42.076Z,21.98
2018-07-10T08:52:59.074Z,21.89
2018-07-10T08:53:35.564Z,21.81
2018-07-10T08:54:42.583Z,22.20
2018-07-10T08:58:53.872Z,20.76
2018-07-10T09:03:05.143Z,20.60
2018-07-10T09:03:44.665Z,20.12
2018-07-10T09:06:16.954Z,19.47
2018-07-10T09:08:47.268Z,19.23
2018-07-10T09:09:48.298Z,19.57
2018-07-10T09:10:46.338Z,19.76
2018-07-10T09:11:46.837Z,19.83
2018-07-10T09:13:00.837Z,20.02
2018-07-10T09:14:09.313Z,19.98
2018-07-10T09:14:52.836Z,19.85
2018-07-10T09:17:18.589Z,19.71
2018-07-10T09:18:20.559Z,19.75
2018-07-10T09:20:52.195Z,19.60
2018-07-10T09:22:10.529Z,19.58
2018-07-10T09:24:22.816Z,20.57
2018-07-10T09:25:23.273Z,20.96
2018-07-10T09:26:42.809Z,21.19
2018-07-10T09:27:21.412Z,21.27
2018-07-10T09:30:14.663Z,21.55
2018-07-10T09:30:54.669Z,21.22
2018-07-10T09:31:53.671Z,21.03
2018-07-10T09:36:17.880Z,21.55
2018-07-10T09:37:21.337Z,21.58
2018-07-10T09:37:58.867Z,21.52
2018-07-10T09:40:49.628Z,20.82
2018-07-10T09:41:49.636Z,20.63
2018-07-10T09:42:32.068Z,20.68
2018-07-10T09:43:31.136Z,20.85
2018-07-10T09:44:28.363Z,20.27
2018-07-10T09:46:59.960Z,20.08
2018-07-10T09:48:23.627Z,20.54
2018-07-10T09:49:22.553Z,20.82
2018-07-10T09:50:18.609Z,20.82
2018-07-10T09:51:00.362Z,20.88
2018-07-10T09:52:23.561Z,21.27
2018-07-10T09:54:32.731Z,21.56
2018-07-10T09:55:32.739Z,21.55
2018-07-10T09:56:53.737Z,21.03
2018-07-10T09:57:35.238Z,21.24
2018-07-10T09:58:55.236Z,21.31
2018-07-10T09:59:33.240Z,21.06
2018-07-10T10:00:54.239Z,21.03
2018-07-10T10:02:00.823Z,20.97
2018-07-10T10:02:47.739Z,20.82
2018-07-10T10:03:33.738Z,20.54
2018-07-10T10:04:33.739Z,20.50
2018-07-10T10:05:33.358Z,20.23
2018-07-10T10:06:34.241Z,20.19
2018-07-10T10:07:56.246Z,19.76
2018-07-10T10:08:33.727Z,19.40
2018-07-10T10:09:34.738Z,19.85
2018-07-10T10:10:34.748Z,19.72
2018-07-10T10:11:55.744Z,19.64
2018-07-10T10:12:34.797Z,19.52
2018-07-10T10:16:37.897Z,19.09
2018-07-10T10:17:39.365Z,18.87
2018-07-10T10:18:37.899Z,18.94
2018-07-10T10:19:37.497Z,18.93
2018-07-10T10:20:40.408Z,19.05
2018-07-10T10:21:38.406Z,19.09
2018-07-10T10:22:52.400Z,19.27
2018-07-10T10:25:10.205Z,19.85
2018-07-10T10:26:10.169Z,19.86
2018-07-10T10:27:10.170Z,19.95
2018-07-10T10:28:10.668Z,20.04
2018-07-10T10:32:34.513Z,20.37
2018-07-10T10:33:18.019Z,20.50
2018-07-10T10:34:33.951Z,20.48
2018-07-10T10:35:14.953Z,20.42
2018-07-10T10:36:35.021Z,20.57
2018-07-10T10:37:15.453Z,20.54
2018-07-10T10:38:14.018Z,20.51
2018-07-10T10:39:14.021Z,20.60
2018-07-10T10:41:45.770Z,20.56
2018-07-10T10:42:45.778Z,20.53
2018-07-10T10:43:46.285Z,20.54
2018-07-10T10:45:07.285Z,20.58
2018-07-10T10:47:16.967Z,20.23
2018-07-10T10:48:31.672Z,20.08
2018-07-10T10:49:19.123Z,20.01
2018-07-10T10:50:39.164Z,20.04
2018-07-10T10:51:38.371Z,20.05
2018-07-10T10:54:10.609Z,19.98
2018-07-10T10:54:51.134Z,20.02
2018-07-10T10:55:49.617Z,20.01
2018-07-10T10:56:53.592Z,20.13
2018-07-10T10:58:13.119Z,20.15
2018-07-10T11:00:21.625Z,20.42
2018-07-10T11:01:23.638Z,20.41
2018-07-10T11:02:27.716Z,20.50
2018-07-10T11:03:22.130Z,20.60
2018-07-10T11:08:56.413Z,21.12
2018-07-10T11:09:55.765Z,21.11
2018-07-10T11:10:56.420Z,21.08
2018-07-10T11:11:56.925Z,21.16
2018-07-10T11:14:42.305Z,21.18
2018-07-10T11:16:59.810Z,21.24
2018-07-10T11:21:02.745Z,21.36
2018-07-10T11:22:23.750Z,21.34
2018-07-10T11:23:04.759Z,21.49
2018-07-10T11:25:55.088Z,21.52
2018-07-10T11:26:35.017Z,21.53
2018-07-10T11:27:35.014Z,21.53
2018-07-10T11:28:35.018Z,21.53
2018-07-10T11:29:35.018Z,21.56
2018-07-10T11:32:06.057Z,21.56
2018-07-10T11:33:06.776Z,21.55
2018-07-10T11:34:06.981Z,21.56
2018-07-10T11:36:59.537Z,21.73
2018-07-10T11:37:38.524Z,21.90
2018-07-10T11:41:42.090Z,22.24
2018-07-10T11:42:42.112Z,22.33
2018-07-10T11:43:42.115Z,22.27
2018-07-10T11:45:03.599Z,22.33
2018-07-10T11:47:13.413Z,22.84
2018-07-10T11:48:15.920Z,22.86
2018-07-10T11:49:14.483Z,22.91
2018-07-10T11:50:14.489Z,23.11
2018-07-10T11:51:35.528Z,23.11
2018-07-10T11:52:16.977Z,22.94
2018-07-10T11:54:46.560Z,22.81
2018-07-10T11:55:47.237Z,22.81
2018-07-10T11:56:47.241Z,22.86
2018-07-10T11:57:47.742Z,23.07
2018-07-10T12:00:19.114Z,23.41
2018-07-10T12:06:07.574Z,23.68
2018-07-10T12:06:53.554Z,23.89
2018-07-10T12:07:54.544Z,24.05
2018-07-10T12:10:25.308Z,24.09
2018-07-10T12:11:46.239Z,24.11
2018-07-10T12:12:26.805Z,23.97
2018-07-10T12:13:24.938Z,23.99
2018-07-10T12:14:25.805Z,24.02
2018-07-10T12:15:46.807Z,23.96
2018-07-10T12:16:25.815Z,23.69
2018-07-10T12:17:26.307Z,23.63
2018-07-10T12:19:57.005Z,23.50
2018-07-10T12:22:43.258Z,23.42
2018-07-10T12:23:31.260Z,23.35
2018-07-10T12:26:00.201Z,23.00
2018-07-10T12:30:04.137Z,22.75
2018-07-10T12:31:25.209Z,22.75
2018-07-10T12:32:03.686Z,22.67
2018-07-10T12:33:31.709Z,22.46
2018-07-10T12:35:36.080Z,22.09
2018-07-10T12:36:36.093Z,21.94
2018-07-10T12:37:36.092Z,21.73
2018-07-10T12:38:36.590Z,21.67
2018-07-10T12:39:57.588Z,21.46
2018-07-10T12:40:35.953Z,21.45
2018-07-10T12:41:57.062Z,21.36
2018-07-10T12:42:39.088Z,21.31
2018-07-10T12:43:38.086Z,21.34
2018-07-10T12:44:37.093Z,21.34
2018-07-10T12:45:38.086Z,21.31
2018-07-10T12:46:57.705Z,21.19
2018-07-10T12:47:58.590Z,21.12
2018-07-10T12:48:36.943Z,21.11
2018-07-10T12:49:39.020Z,21.09
2018-07-10T12:51:05.092Z,20.94
2018-07-10T12:53:30.475Z,20.93
2018-07-10T12:54:09.484Z,20.93
2018-07-10T12:55:23.483Z,20.87
2018-07-10T12:56:16.056Z,20.81
2018-07-10T12:57:15.983Z,20.83
2018-07-10T12:58:09.365Z,20.88
2018-07-10T13:00:40.986Z,20.88
2018-07-10T13:01:57.614Z,20.79
2018-07-10T13:04:35.809Z,20.66
2018-07-10T13:05:13.377Z,20.57
2018-07-10T13:06:15.377Z,20.54
2018-07-10T13:07:20.875Z,20.53
2018-07-10T13:08:36.875Z,20.35
2018-07-10T13:09:13.877Z,20.38
2018-07-10T13:10:13.923Z,20.40
2018-07-10T13:11:14.379Z,20.54
2018-07-10T13:14:24.296Z,20.42
2018-07-10T13:15:05.275Z,20.38
2018-07-10T13:16:03.300Z,20.37
2018-07-10T13:17:24.798Z,20.27
2018-07-10T13:18:03.800Z,20.26
2018-07-10T13:19:24.799Z,20.34
2018-07-10T13:20:03.805Z,20.23
2018-07-10T13:21:25.298Z,20.25
2018-07-10T13:22:03.527Z,20.31
2018-07-10T13:23:25.299Z,19.94
2018-07-10T13:24:04.299Z,19.78
2018-07-10T13:25:04.804Z,19.85
2018-07-10T13:26:04.808Z,19.87
2018-07-10T13:27:05.846Z,20.00
2018-07-10T13:28:04.799Z,20.00
2018-07-10T13:29:26.300Z,20.00
2018-07-10T13:31:36.690Z,19.86
2018-07-10T13:32:36.700Z,19.92
2018-07-10T13:33:36.707Z,19.98
2018-07-10T13:34:51.197Z,20.08
2018-07-10T13:35:58.247Z,20.05
2018-07-10T13:36:36.561Z,20.20
2018-07-10T13:37:37.197Z,20.31
2018-07-10T13:38:36.798Z,20.41
2018-07-10T13:39:40.682Z,20.60
2018-07-10T13:40:37.697Z,20.51
2018-07-10T13:41:37.701Z,20.54
2018-07-10T13:42:40.134Z,20.54
2018-07-10T13:44:01.675Z,20.40
2018-07-10T13:44:59.201Z,20.56
2018-07-10T13:45:38.197Z,20.53
2018-07-10T13:46:46.130Z,20.46
2018-07-10T13:48:01.697Z,20.46
2018-07-10T13:50:16.212Z,20.27
2018-07-10T13:51:11.658Z,20.27
2018-07-10T13:52:10.219Z,20.34
2018-07-10T13:53:31.220Z,20.38
2018-07-10T13:57:33.646Z,20.35
2018-07-10T13:58:12.772Z,20.34
2018-07-10T13:59:13.413Z,20.35
2018-07-10T14:00:13.028Z,20.38
2018-07-10T14:01:13.913Z,20.40
2018-07-10T14:02:13.914Z,20.44
2018-07-10T14:03:13.920Z,20.46
2018-07-10T14:04:28.414Z,20.53
2018-07-10T14:05:20.414Z,20.56
2018-07-10T14:06:35.413Z,20.57
2018-07-10T14:07:35.415Z,20.61
2018-07-10T14:08:35.915Z,20.40
2018-07-10T14:09:14.846Z,20.42
2018-07-10T14:10:35.913Z,20.42
2018-07-10T14:11:14.911Z,20.41
2018-07-10T14:12:38.490Z,20.42
2018-07-10T14:13:16.885Z,20.41
2018-07-10T14:15:46.919Z,20.23
2018-07-10T14:16:46.927Z,20.00
2018-07-10T14:17:46.924Z,19.98
2018-07-10T14:22:04.136Z,19.87
2018-07-10T14:22:49.488Z,19.87
2018-07-10T14:23:50.141Z,19.64
2018-07-10T14:26:42.900Z,19.53
2018-07-10T14:27:23.839Z,19.49
2018-07-10T14:28:23.417Z,19.53
2018-07-10T14:29:50.839Z,19.61
2018-07-10T14:31:59.776Z,19.55
2018-07-10T14:32:53.782Z,19.62
2018-07-10T14:33:53.783Z,19.50
2018-07-10T14:34:53.436Z,19.50
2018-07-10T14:37:25.631Z,19.50
2018-07-10T14:38:25.642Z,19.46
2018-07-10T14:39:25.644Z,19.50
2018-07-10T14:40:25.242Z,19.34
2018-07-10T14:41:26.141Z,19.25
2018-07-10T14:42:26.149Z,19.27
2018-07-10T14:43:25.647Z,19.07
2018-07-10T14:44:32.644Z,18.96
2018-07-10T14:45:47.640Z,18.93
2018-07-10T14:46:26.644Z,18.84
2018-07-10T14:47:26.642Z,18.79
2018-07-10T14:48:27.149Z,18.83
2018-07-10T14:49:27.147Z,18.82
2018-07-10T14:50:27.099Z,18.76
2018-07-10T14:51:27.143Z,18.68
2018-07-10T14:52:26.749Z,18.65
2018-07-10T14:54:58.997Z,18.66
2018-07-10T14:56:21.937Z,18.66
2018-07-10T14:57:26.004Z,18.74
2018-07-10T14:58:20.504Z,18.83
2018-07-10T14:58:58.793Z,18.72
2018-07-10T15:00:22.537Z,18.62
2018-07-10T15:01:00.966Z,18.59
2018-07-10T15:02:00.009Z,18.62
2018-07-10T15:03:02.028Z,18.66
2018-07-10T15:04:00.008Z,18.54
2018-07-10T15:05:00.004Z,18.50
2018-07-10T15:07:31.785Z,18.44
2018-07-10T15:08:31.803Z,18.29
2018-07-10T15:09:31.800Z,18.32
2018-07-10T15:12:02.924Z,18.26
2018-07-10T15:13:03.566Z,18.20
2018-07-10T15:14:24.618Z,18.21
2018-07-10T15:15:04.144Z,18.21
2018-07-10T15:16:27.054Z,18.20
2018-07-10T15:17:04.054Z,18.14
2018-07-10T15:18:04.053Z,18.04
2018-07-10T15:19:03.782Z,18.11
2018-07-10T15:20:05.494Z,18.07
2018-07-10T15:21:03.854Z,17.95
2018-07-10T15:22:04.553Z,17.99
2018-07-10T15:23:04.557Z,17.96
2018-07-10T15:24:26.059Z,17.99
2018-07-10T15:25:05.138Z,17.89
2018-07-10T15:26:04.401Z,17.89
2018-07-10T15:27:26.055Z,17.92
2018-07-10T15:28:25.648Z,17.92
2018-07-10T15:30:38.386Z,17.92
2018-07-10T15:31:36.944Z,17.87
2018-07-10T15:32:36.945Z,17.83
2018-07-10T15:33:37.441Z,17.86
2018-07-10T15:34:51.441Z,17.79
2018-07-10T15:35:58.443Z,17.80
2018-07-10T15:36:37.443Z,17.77
2018-07-10T15:37:37.946Z,17.70
2018-07-10T15:38:37.168Z,17.80
2018-07-10T15:39:37.955Z,17.77
2018-07-10T15:40:37.943Z,17.81
2018-07-10T15:41:37.542Z,17.81
2018-07-10T15:42:38.449Z,17.77
2018-07-10T15:43:38.445Z,17.81
2018-07-10T15:44:39.883Z,17.84
2018-07-10T15:47:10.154Z,17.99
2018-07-10T15:48:10.161Z,17.98
2018-07-10T15:49:10.198Z,18.09
2018-07-10T15:50:10.653Z,17.99
2018-07-10T15:51:10.657Z,17.99
2018-07-10T15:52:10.654Z,18.11
2018-07-10T15:53:10.130Z,18.04
2018-07-10T15:54:11.154Z,17.94
2018-07-10T15:55:11.154Z,18.02
2018-07-10T15:56:11.171Z,18.04
2018-07-10T15:57:11.152Z,18.04
2018-07-10T15:58:25.667Z,18.09
2018-07-10T15:59:11.655Z,18.10
2018-07-10T16:01:42.451Z,17.98
2018-07-10T16:02:49.182Z,18.04
2018-07-10T16:03:50.115Z,18.05
2018-07-10T16:04:43.684Z,18.11
2018-07-10T16:06:04.740Z,18.07
2018-07-10T16:06:43.684Z,17.89
2018-07-10T16:07:43.683Z,17.87
2018-07-10T16:08:44.185Z,18.02
2018-07-10T16:10:05.181Z,17.84
2018-07-10T16:10:44.182Z,17.77
2018-07-10T16:12:05.180Z,17.76
2018-07-10T16:13:05.683Z,17.80
2018-07-10T16:15:22.056Z,17.73
2018-07-10T16:17:47.550Z,17.80
2018-07-10T16:18:47.599Z,17.79
2018-07-10T16:19:47.564Z,17.74
2018-07-10T16:22:23.255Z,17.70
2018-07-10T16:23:25.822Z,17.71